Time;durP1;ratioP1;P1;durP2;ratioP2;P2;SDS_P1;SDS_P2;PMS_P1;PMS_P2;Temp;Humidity;BMP_temperature;BMP_pressure;BME280_temperature;BME280_humidity;BME280_pressure;Samples;Min_cycle;Max_cycle;Signal;HPM_P1;HPM_P2
2022/06/14 00:03:39;;;;;;;2.70;1.40;;;24.50;55.80;;;;;;219682;1273;22700;-54
2022/06/14 00:08:59;;;;;;;2.40;1.40;;;24.50;55.70;;;;;;219944;1271;22633;-58
2022/06/14 00:14:03;;;;;;;3.70;1.60;;;24.40;55.60;;;;;;219846;1271;24306;-55
2022/06/14 00:19:06;;;;;;;2.20;1.40;;;24.50;55.70;;;;;;219964;1273;25369;-54
2022/06/14 00:24:09;;;;;;;2.40;1.50;;;24.40;56.00;;;;;;220148;1270;22528;-58
2022/06/14 00:29:11;;;;;;;3.40;1.70;;;24.40;55.60;;;;;;220014;1272;22559;-55
2022/06/14 00:34:14;;;;;;;2.60;1.40;;;24.40;55.60;;;;;;219866;1271;25270;-56
2022/06/14 00:39:16;;;;;;;2.70;1.50;;;24.30;55.70;;;;;;219819;1270;24441;-56
2022/06/14 00:44:24;;;;;;;2.80;1.60;;;24.40;55.70;;;;;;220008;1270;22556;-56
2022/06/14 00:49:37;;;;;;;2.40;1.50;;;24.30;55.80;;;;;;219937;1270;25490;-55
2022/06/14 00:54:43;;;;;;;2.20;1.50;;;24.30;56.00;;;;;;219663;1273;24317;-59
2022/06/14 00:59:52;;;;;;;3.50;1.80;;;24.30;55.60;;;;;;219818;1270;22563;-55
2022/06/14 01:04:55;;;;;;;2.30;1.50;;;24.30;55.60;;;;;;219727;1270;24224;-53
2022/06/14 01:10:04;;;;;;;2.40;1.40;;;24.30;55.60;;;;;;219895;1270;24749;-57
2022/06/14 01:15:16;;;;;;;2.30;1.50;;;24.30;55.60;;;;;;219724;1270;22541;-55
2022/06/14 01:20:21;;;;;;;2.20;1.60;;;24.30;55.60;;;;;;219476;1272;510642;-55
2022/06/14 01:25:25;;;;;;;1.70;1.40;;;24.20;55.90;;;;;;220010;1270;27442;-55
2022/06/14 01:30:31;;;;;;;2.20;1.50;;;24.20;55.40;;;;;;219908;1270;22800;-58
2022/06/14 01:35:37;;;;;;;2.40;1.50;;;24.20;55.50;;;;;;219939;1270;23033;-58
2022/06/14 01:40:52;;;;;;;2.10;1.20;;;24.20;55.70;;;;;;220101;1270;22570;-54
2022/06/14 01:46:19;;;;;;;2.50;1.50;;;24.20;55.50;;;;;;219953;1272;22535;-56
2022/06/14 01:51:52;;;;;;;2.20;1.40;;;24.20;55.60;;;;;;220180;1270;24292;-57
2022/06/14 01:57:11;;;;;;;3.30;1.50;;;24.20;55.50;;;;;;220180;1270;22609;-54
2022/06/14 02:02:27;;;;;;;2.40;1.50;;;24.20;55.50;;;;;;220055;1272;22544;-58
2022/06/14 02:07:51;;;;;;;2.40;1.50;;;24.10;55.40;;;;;;220058;1273;25469;-57
2022/06/14 02:13:10;;;;;;;1.90;1.40;;;24.20;55.10;;;;;;220164;1270;22544;-54
2022/06/14 02:18:20;;;;;;;2.50;1.50;;;24.10;55.40;;;;;;219732;1271;25508;-56
2022/06/14 02:23:24;;;;;;;2.90;1.50;;;24.10;55.50;;;;;;219639;1271;22671;-53
2022/06/14 02:28:32;;;;;;;3.30;1.50;;;24.10;55.60;;;;;;219569;1271;24106;-55
2022/06/14 02:33:39;;;;;;;1.80;1.20;;;24.10;55.50;;;;;;219734;1271;23062;-54
2022/06/14 02:38:52;;;;;;;1.80;1.30;;;24.00;55.60;;;;;;219779;1271;22564;-56
2022/06/14 02:44:10;;;;;;;3.20;1.40;;;24.00;55.40;;;;;;219648;1271;22596;-54
2022/06/14 02:49:29;;;;;;;2.80;1.50;;;24.00;55.60;;;;;;219845;1271;23180;-56
2022/06/14 02:54:44;;;;;;;2.50;1.20;;;24.00;55.50;;;;;;219857;1270;24389;-55
2022/06/14 03:00:12;;;;;;;2.60;1.60;;;24.00;55.30;;;;;;219903;1270;24269;-55
2022/06/14 03:05:48;;;;;;;2.60;1.30;;;24.00;55.40;;;;;;220016;1270;24384;-56
2022/06/14 03:11:15;;;;;;;2.10;1.40;;;24.00;55.40;;;;;;220211;1270;25570;-55
2022/06/14 03:16:58;;;;;;;3.30;1.20;;;24.00;55.00;;;;;;220053;1272;22612;-55
2022/06/14 03:22:37;;;;;;;3.60;1.40;;;23.90;55.40;;;;;;219961;1273;22553;-53
2022/06/14 03:27:55;;;;;;;1.70;1.20;;;23.90;55.40;;;;;;219862;1271;24256;-57
2022/06/14 03:33:15;;;;;;;3.10;1.30;;;23.90;55.00;;;;;;220028;1271;22558;-56
2022/06/14 03:38:23;;;;;;;1.80;1.20;;;23.90;55.40;;;;;;219711;1273;25451;-56
2022/06/14 03:43:26;;;;;;;2.10;1.50;;;23.90;55.40;;;;;;219809;1271;26039;-54
2022/06/14 03:48:30;;;;;;;2.00;1.30;;;23.90;55.50;;;;;;219708;1271;22703;-56
2022/06/14 03:54:06;;;;;;;2.30;1.50;;;23.90;55.40;;;;;;219689;1271;22546;-57
2022/06/14 03:59:38;;;;;;;2.60;1.50;;;23.90;56.00;;;;;;219777;1271;23949;-56
2022/06/14 04:04:43;;;;;;;2.10;1.40;;;23.90;55.70;;;;;;219565;1272;22629;-53
2022/06/14 04:10:02;;;;;;;2.80;1.40;;;23.90;55.40;;;;;;219832;1272;26816;-56
2022/06/14 04:15:15;;;;;;;1.90;1.20;;;23.90;55.30;;;;;;219816;1271;24238;-56
2022/06/14 04:20:38;;;;;;;1.70;1.10;;;23.80;55.90;;;;;;219803;1271;24357;-55
2022/06/14 04:26:19;;;;;;;3.20;1.70;;;23.80;55.30;;;;;;219898;1271;24236;-56
2022/06/14 04:31:34;;;;;;;1.90;1.30;;;23.90;55.30;;;;;;219957;1271;23248;-52
2022/06/14 04:36:54;;;;;;;1.90;1.20;;;23.80;55.30;;;;;;219791;1271;22549;-56
2022/06/14 04:42:08;;;;;;;2.10;1.40;;;23.90;55.30;;;;;;219882;1271;24775;-58
2022/06/14 04:47:17;;;;;;;3.20;1.20;;;23.90;55.30;;;;;;219840;1271;24376;-59
2022/06/14 04:52:50;;;;;;;2.30;1.40;;;23.80;55.30;;;;;;219958;1271;22551;-55
2022/06/14 04:58:10;;;;;;;2.70;1.10;;;23.80;55.30;;;;;;220032;1272;24287;-57
2022/06/14 05:03:19;;;;;;;1.90;1.30;;;23.80;55.20;;;;;;219958;1271;24279;-57
2022/06/14 05:08:35;;;;;;;2.20;1.00;;;23.90;55.30;;;;;;220133;1272;22649;-55
2022/06/14 05:13:51;;;;;;;1.90;1.20;;;23.90;55.20;;;;;;219962;1271;25297;-55
2022/06/14 05:19:24;;;;;;;2.40;1.40;;;23.80;55.20;;;;;;219995;1271;22660;-56
2022/06/14 05:24:28;;;;;;;1.90;1.20;;;23.90;55.30;;;;;;219814;1271;24495;-55
2022/06/14 05:29:44;;;;;;;2.80;1.30;;;23.80;55.20;;;;;;220271;1271;22854;-54
2022/06/14 05:34:46;;;;;;;2.00;1.30;;;23.90;55.50;;;;;;220192;1274;24724;-57
2022/06/14 05:39:56;;;;;;;1.90;1.20;;;23.90;55.20;;;;;;220068;1270;22575;-56
2022/06/14 05:45:01;;;;;;;2.40;1.30;;;23.80;55.10;;;;;;220065;1271;22707;-56
2022/06/14 05:50:13;;;;;;;2.00;1.30;;;23.80;55.10;;;;;;220135;1270;24502;-54
2022/06/14 05:55:39;;;;;;;2.00;1.30;;;23.90;55.50;;;;;;219860;1271;22798;-56
2022/06/14 06:01:05;;;;;;;1.70;1.30;;;23.90;55.00;;;;;;220076;1271;25659;-54
2022/06/14 06:06:30;;;;;;;2.20;1.50;;;23.90;54.60;;;;;;220138;1271;22634;-55
2022/06/14 06:11:45;;;;;;;1.80;1.10;;;23.90;55.00;;;;;;219926;1271;22663;-56
2022/06/14 06:17:05;;;;;;;1.90;1.40;;;23.80;55.30;;;;;;219930;1271;24396;-59
2022/06/14 06:22:15;;;;;;;1.80;1.20;;;23.90;55.00;;;;;;219785;1271;26000;-55
2022/06/14 06:27:21;;;;;;;2.40;1.20;;;23.90;55.00;;;;;;219716;1271;22563;-53
2022/06/14 06:32:28;;;;;;;2.20;1.30;;;23.90;55.00;;;;;;220034;1271;25336;-55
2022/06/14 06:37:35;;;;;;;1.80;1.30;;;23.90;54.90;;;;;;219680;1271;23163;-57
2022/06/14 06:42:49;;;;;;;2.10;1.10;;;23.90;54.90;;;;;;219808;1271;26173;-55
2022/06/14 06:48:15;;;;;;;1.40;1.00;;;23.90;54.90;;;;;;219849;1271;24334;-56
2022/06/14 06:53:18;;;;;;;2.70;1.20;;;23.90;54.80;;;;;;219921;1271;24269;-55
2022/06/14 06:58:28;;;;;;;2.20;1.50;;;23.90;54.80;;;;;;219815;1271;24363;-54
2022/06/14 07:03:55;;;;;;;1.80;1.00;;;23.90;54.80;;;;;;219775;1271;24392;-56
2022/06/14 07:09:09;;;;;;;1.80;1.00;;;23.90;54.80;;;;;;219923;1271;22677;-54
2022/06/14 07:14:25;;;;;;;2.30;1.20;;;24.00;54.80;;;;;;219966;1271;23041;-55
2022/06/14 07:19:33;;;;;;;1.90;1.30;;;24.00;54.80;;;;;;220127;1272;22541;-55
2022/06/14 07:24:52;;;;;;;1.90;1.20;;;24.00;54.80;;;;;;220104;1271;22642;-53
2022/06/14 07:30:30;;;;;;;1.70;1.20;;;24.00;54.80;;;;;;220009;1271;22538;-54
2022/06/14 07:36:13;;;;;;;1.90;1.30;;;24.00;54.70;;;;;;219978;1271;26843;-53
2022/06/14 07:41:24;;;;;;;1.60;1.20;;;24.10;54.30;;;;;;219838;1271;22532;-53
2022/06/14 07:46:56;;;;;;;3.00;1.50;;;24.10;54.70;;;;;;219926;1271;22587;-55
2022/06/14 07:52:18;;;;;;;1.40;0.90;;;24.10;54.70;;;;;;219732;1271;22546;-58
2022/06/14 07:57:28;;;;;;;1.80;1.00;;;24.10;54.70;;;;;;220022;1271;22700;-55
2022/06/14 08:02:39;;;;;;;1.60;1.10;;;24.10;54.60;;;;;;219910;1271;24240;-55
2022/06/14 08:07:45;;;;;;;2.20;1.20;;;24.10;54.70;;;;;;219925;1271;22648;-55
2022/06/14 08:12:53;;;;;;;1.80;1.10;;;24.20;54.50;;;;;;219964;1270;22545;-54
2022/06/14 08:18:19;;;;;;;2.40;1.10;;;24.20;54.60;;;;;;219917;1272;22575;-53
2022/06/14 08:23:28;;;;;;;1.80;1.10;;;24.20;54.50;;;;;;219983;1270;23990;-55
2022/06/14 08:28:48;;;;;;;1.50;1.10;;;24.20;54.50;;;;;;219959;1271;22541;-58
2022/06/14 08:34:01;;;;;;;2.00;1.20;;;24.20;54.50;;;;;;220087;1271;24306;-55
2022/06/14 08:39:09;;;;;;;2.20;1.10;;;24.30;55.10;;;;;;220169;1272;22585;-54
2022/06/14 08:44:16;;;;;;;1.90;1.10;;;24.30;54.50;;;;;;220147;1274;25267;-54
2022/06/14 08:49:30;;;;;;;1.80;1.20;;;24.30;54.50;;;;;;220122;1270;22668;-56
2022/06/14 08:55:06;;;;;;;2.10;1.10;;;24.30;54.40;;;;;;219930;1271;22812;-54
2022/06/14 09:00:26;;;;;;;;;;;24.30;54.50;;;;;;220158;1270;22550;-57
2022/06/14 09:05:32;;;;;;;1.90;1.10;;;24.30;54.30;;;;;;220064;1272;22714;-58
2022/06/14 09:11:06;;;;;;;1.50;1.10;;;24.30;54.20;;;;;;220065;1271;22631;-55
2022/06/14 09:16:43;;;;;;;2.40;1.20;;;24.40;54.30;;;;;;220134;1270;22567;-55
2022/06/14 09:22:33;;;;;;;1.30;0.90;;;24.40;54.40;;;;;;219962;1271;24295;-56
2022/06/14 09:28:03;;;;;;;1.80;1.10;;;24.40;54.30;;;;;;219906;1271;25421;-56
2022/06/14 09:33:17;;;;;;;1.40;0.90;;;24.40;54.50;;;;;;220056;1270;25364;-54
2022/06/14 09:39:09;;;;;;;2.70;1.10;;;24.40;54.20;;;;;;220101;1271;24337;-55
2022/06/14 09:44:46;;;;;;;2.00;1.10;;;24.50;54.20;;;;;;219897;1270;25419;-56
2022/06/14 09:50:26;;;;;;;1.70;1.20;;;24.50;54.50;;;;;;220063;1270;22690;-55
2022/06/14 09:55:42;;;;;;;1.70;1.00;;;24.50;54.10;;;;;;219910;1270;22543;-52
2022/06/14 10:01:22;;;;;;;1.40;1.00;;;24.50;54.00;;;;;;219849;1270;22569;-54
2022/06/14 10:06:37;;;;;;;1.50;1.00;;;24.50;54.00;;;;;;219864;1270;24233;-52
2022/06/14 10:11:46;;;;;;;1.90;1.10;;;24.50;53.90;;;;;;220045;1271;24165;-53
2022/06/14 10:17:06;;;;;;;1.70;1.10;;;24.50;53.90;;;;;;220084;1271;26618;-54
2022/06/14 10:22:31;;;;;;;1.60;1.10;;;24.50;54.20;;;;;;219876;1271;22869;-54
2022/06/14 10:28:14;;;;;;;2.10;1.20;;;24.60;53.80;;;;;;219927;1270;25477;-53
2022/06/14 10:33:21;;;;;;;2.00;1.10;;;24.60;53.80;;;;;;219907;1271;22557;-55
2022/06/14 10:38:42;;;;;;;1.80;1.10;;;24.60;53.70;;;;;;219949;1270;25324;-53
2022/06/14 10:44:13;;;;;;;1.90;1.10;;;24.60;53.70;;;;;;219954;1271;25296;-53
2022/06/14 10:49:25;;;;;;;1.80;1.10;;;24.60;53.70;;;;;;219955;1271;22702;-54
2022/06/14 10:55:05;;;;;;;1.50;1.00;;;24.60;53.60;;;;;;220046;1270;22547;-55
2022/06/14 11:00:22;;;;;;;1.80;1.00;;;24.70;53.50;;;;;;220099;1270;24017;-58
2022/06/14 11:05:49;;;;;;;1.90;1.10;;;24.70;53.80;;;;;;219889;1271;22632;-50
2022/06/14 11:11:06;;;;;;;1.30;1.00;;;24.70;53.40;;;;;;219871;1270;22550;-55
2022/06/14 11:16:54;;;;;;;2.10;1.30;;;24.70;53.40;;;;;;220106;1270;25393;-53
2022/06/14 11:22:40;;;;;;;1.40;1.00;;;24.70;53.60;;;;;;219734;1270;22560;-54
2022/06/14 11:28:08;;;;;;;1.60;1.00;;;24.70;53.30;;;;;;220153;1271;22567;-54
2022/06/14 11:33:36;;;;;;;1.60;1.00;;;24.80;53.30;;;;;;219770;1271;22560;-57
2022/06/14 11:39:08;;;;;;;2.70;1.20;;;24.80;53.20;;;;;;219741;1271;22548;-53
2022/06/14 11:44:26;;;;;;;1.70;1.00;;;24.80;53.30;;;;;;219820;1270;24174;-51
2022/06/14 11:49:50;;;;;;;2.00;1.20;;;24.80;53.20;;;;;;220066;1271;22580;-53
2022/06/14 11:55:32;;;;;;;1.40;1.00;;;24.80;53.10;;;;;;219891;1271;24236;-54
2022/06/14 12:00:55;;;;;;;2.00;1.30;;;24.80;53.10;;;;;;219610;1272;25805;-54
2022/06/14 12:06:47;;;;;;;1.60;0.90;;;24.90;52.70;;;;;;219879;1271;22541;-54
2022/06/14 12:12:23;;;;;;;2.00;1.10;;;24.90;53.00;;;;;;219788;1271;22574;-57
2022/06/14 12:17:42;;;;;;;2.20;1.20;;;24.90;53.00;;;;;;220043;1270;22577;-51
2022/06/14 12:22:45;;;;;;;1.90;1.00;;;24.90;52.80;;;;;;219891;1271;24230;-53
2022/06/14 12:28:01;;;;;;;1.90;1.10;;;24.90;52.80;;;;;;219944;1271;24206;-55
2022/06/14 12:33:29;;;;;;;1.70;1.40;;;24.90;52.80;;;;;;220041;1271;24361;-56
2022/06/14 12:38:47;;;;;;;2.70;1.10;;;24.90;53.10;;;;;;220174;1271;22582;-53
2022/06/14 12:44:24;;;;;;;1.80;1.20;;;24.90;52.80;;;;;;219926;1271;22591;-56
2022/06/14 12:49:43;;;;;;;2.00;1.00;;;24.90;52.80;;;;;;219677;1271;24235;-51
2022/06/14 12:54:58;;;;;;;1.60;1.10;;;24.90;52.70;;;;;;219764;1271;22557;-54
2022/06/14 13:00:22;;;;;;;3.20;1.50;;;24.90;52.70;;;;;;219971;1270;24285;-54
2022/06/14 13:05:37;;;;;;;1.70;1.10;;;25.00;52.70;;;;;;220010;1271;25443;-54
2022/06/14 13:11:10;;;;;;;4.10;1.10;;;25.00;52.20;;;;;;220038;1271;24299;-52
2022/06/14 13:16:46;;;;;;;2.10;1.20;;;25.00;52.60;;;;;;220195;1271;26632;-57
2022/06/14 13:22:05;;;;;;;3.00;1.20;;;25.00;52.60;;;;;;219690;1271;425652;-57
2022/06/14 13:27:47;;;;;;;2.40;1.20;;;25.00;52.60;;;;;;220132;1271;22634;-55
2022/06/14 13:33:23;;;;;;;2.60;1.20;;;25.00;52.60;;;;;;219981;1270;24250;-53
2022/06/14 13:38:57;;;;;;;2.80;1.30;;;25.00;52.50;;;;;;219946;1271;25506;-52
2022/06/14 13:44:23;;;;;;;2.50;1.20;;;25.00;52.40;;;;;;219909;1271;22563;-55
2022/06/14 13:49:37;;;;;;;2.90;1.20;;;25.00;52.40;;;;;;220080;1271;22977;-52
2022/06/14 13:54:52;;;;;;;2.30;1.30;;;25.00;52.30;;;;;;220035;1270;24364;-53
2022/06/14 14:00:33;;;;;;;2.50;1.30;;;25.00;52.30;;;;;;220089;1271;22557;-53
2022/06/14 14:06:11;;;;;;;2.90;1.10;;;25.00;52.20;;;;;;219830;1271;25273;-54
2022/06/14 14:12:03;;;;;;;2.40;1.30;;;25.00;52.20;;;;;;219835;1271;22917;-52
2022/06/14 14:17:51;;;;;;;2.60;1.20;;;25.00;52.60;;;;;;219622;1272;22636;-53
2022/06/14 14:23:08;;;;;;;2.10;1.10;;;25.10;52.20;;;;;;219843;1270;22706;-54
2022/06/14 14:28:40;;;;;;;2.40;1.30;;;25.10;52.20;;;;;;219891;1271;24085;-52
2022/06/14 14:34:20;;;;;;;2.80;1.20;;;25.00;52.40;;;;;;219787;1271;22698;-51
2022/06/14 14:39:31;;;;;;;2.00;1.00;;;25.10;52.20;;;;;;220166;1271;24240;-53
2022/06/14 14:44:40;;;;;;;1.80;1.10;;;25.00;52.10;;;;;;219964;1271;24391;-54
2022/06/14 14:50:23;;;;;;;1.80;1.10;;;25.00;52.10;;;;;;219935;1270;22711;-54
2022/06/14 14:55:32;;;;;;;3.70;1.20;;;25.00;52.10;;;;;;220145;1271;22569;-51
2022/06/14 15:06:14;;;;;;;1.80;1.20;;;25.00;52.10;;;;;;219987;1270;24766;-51
2022/06/14 15:11:26;;;;;;;3.60;1.60;;;25.00;52.10;;;;;;219969;1273;25268;-55
2022/06/14 15:16:34;;;;;;;3.40;1.30;;;25.00;52.10;;;;;;219778;1271;25333;-54
2022/06/14 15:21:58;;;;;;;2.60;1.10;;;25.00;51.60;;;;;;219857;1271;22544;-55
2022/06/14 15:27:07;;;;;;;2.30;1.30;;;25.00;52.10;;;;;;219705;1271;25269;-51
2022/06/14 15:32:12;;;;;;;1.80;1.00;;;25.00;52.10;;;;;;219959;1271;22554;-52
2022/06/14 15:37:21;;;;;;;2.50;1.20;;;24.90;52.20;;;;;;220077;1270;24304;-54
2022/06/14 15:42:36;;;;;;;2.70;1.40;;;24.90;52.10;;;;;;220014;1270;25393;-52
2022/06/14 15:47:39;;;;;;;2.30;1.50;;;25.00;52.10;;;;;;219788;1271;24388;-56
2022/06/14 15:52:50;;;;;;;3.10;1.20;;;24.90;52.10;;;;;;220051;1270;26501;-53
2022/06/14 15:58:01;;;;;;;2.00;1.20;;;25.00;52.10;;;;;;219666;1270;22565;-50
2022/06/14 16:03:12;;;;;;;2.00;1.20;;;24.90;52.10;;;;;;219971;1270;24226;-51
2022/06/14 16:08:24;;;;;;;2.90;1.20;;;24.90;52.10;;;;;;220058;1270;25423;-55
2022/06/14 16:13:44;;;;;;;2.70;1.50;;;24.90;51.60;;;;;;219902;1270;25224;-52
2022/06/14 16:18:50;;;;;;;2.70;1.60;;;24.90;52.10;;;;;;219965;1270;22560;-51
2022/06/14 16:23:59;;;;;;;3.10;1.00;;;24.90;52.20;;;;;;219932;1270;25366;-52
2022/06/14 16:29:13;;;;;;;4.00;1.50;;;24.90;52.20;;;;;;219792;1270;22550;-54
2022/06/14 16:34:42;;;;;;;1.90;1.10;;;24.90;52.20;;;;;;219883;1271;22545;-53
2022/06/14 16:40:21;;;;;;;2.50;1.30;;;24.90;52.20;;;;;;219805;1271;25368;-52
2022/06/14 16:45:56;;;;;;;2.80;1.40;;;24.90;52.20;;;;;;219944;1271;22564;-55
2022/06/14 16:51:13;;;;;;;;;;;24.90;52.90;;;;;;219900;1270;25486;-52
2022/06/14 16:56:27;;;;;;;2.30;1.40;;;24.90;52.80;;;;;;220104;1270;22700;-54
2022/06/14 17:01:52;;;;;;;1.70;1.00;;;24.80;52.60;;;;;;220049;1270;24333;-53
2022/06/14 17:07:38;;;;;;;4.30;1.30;;;24.80;52.50;;;;;;219973;1270;24238;-53
2022/06/14 17:13:02;;;;;;;4.60;1.40;;;24.90;52.20;;;;;;219829;1270;24621;-53
2022/06/14 17:18:12;;;;;;;2.00;1.20;;;24.80;52.20;;;;;;220153;1270;22816;-54
2022/06/14 17:23:37;;;;;;;;;;;24.80;51.90;;;;;;219978;1270;25639;-53
2022/06/14 17:34:11;;;;;;;2.10;1.10;;;24.80;52.20;;;;;;219999;1270;22579;-56
2022/06/14 17:39:28;;;;;;;1.80;1.10;;;24.80;52.30;;;;;;219812;1270;25272;-54
2022/06/14 17:44:40;;;;;;;3.10;1.50;;;24.80;52.30;;;;;;219965;1270;22544;-54
2022/06/14 17:50:13;;;;;;;2.90;1.40;;;24.80;52.30;;;;;;220092;1271;22745;-55
2022/06/14 17:55:40;;;;;;;3.70;1.40;;;24.70;52.20;;;;;;219555;1271;24807;-54
2022/06/14 18:01:12;;;;;;;2.60;1.40;;;24.70;52.30;;;;;;220086;1271;22596;-53
2022/06/14 18:06:20;;;;;;;3.20;1.10;;;24.70;52.10;;;;;;219912;1270;23947;-53
2022/06/14 18:11:31;;;;;;;2.00;1.10;;;24.70;52.50;;;;;;219838;1270;22628;-56
2022/06/14 18:16:46;;;;;;;3.20;1.20;;;24.70;52.20;;;;;;219656;1271;25172;-53
2022/06/14 18:21:53;;;;;;;3.30;1.40;;;24.70;52.10;;;;;;219804;1271;23460;-53
2022/06/14 18:27:04;;;;;;;3.80;1.30;;;24.70;52.10;;;;;;219824;1272;24249;-53
2022/06/14 18:32:25;;;;;;;2.60;1.40;;;24.70;52.20;;;;;;219734;1271;22565;-54
2022/06/14 18:37:36;;;;;;;2.20;1.30;;;24.70;52.10;;;;;;219680;1272;25629;-53
2022/06/14 18:42:39;;;;;;;2.90;1.40;;;24.70;52.30;;;;;;219894;1273;24298;-53
2022/06/14 18:47:46;;;;;;;2.10;1.30;;;24.70;52.20;;;;;;220081;1270;22566;-52
2022/06/14 18:53:02;;;;;;;3.50;1.50;;;24.70;52.10;;;;;;219882;1273;22577;-57
2022/06/14 18:58:21;;;;;;;2.20;1.60;;;24.60;52.20;;;;;;219816;1271;25468;-52
2022/06/14 19:03:30;;;;;;;2.80;1.50;;;24.60;52.20;;;;;;219940;1270;24360;-52
2022/06/14 19:09:06;;;;;;;2.90;1.30;;;24.60;52.50;;;;;;219764;1270;25627;-54
2022/06/14 19:14:36;;;;;;;3.00;1.20;;;24.60;52.20;;;;;;219879;1270;24294;-54
2022/06/14 19:20:44;;;;;;;2.80;1.30;;;24.60;52.20;;;;;;220050;1270;26568;-51
2022/06/14 19:26:25;;;;;;;3.70;1.60;;;24.60;52.20;;;;;;220066;1270;22547;-57
2022/06/14 19:31:43;;;;;;;3.30;1.80;;;24.50;52.20;;;;;;220066;1273;22552;-55
2022/06/14 19:36:57;;;;;;;2.00;1.20;;;24.50;52.40;;;;;;219927;1273;24236;-52
2022/06/14 19:42:17;;;;;;;2.60;1.50;;;24.50;52.40;;;;;;219820;1273;24247;-55
2022/06/14 19:47:35;;;;;;;2.80;1.80;;;24.50;52.40;;;;;;219824;1271;22537;-56
2022/06/14 19:52:53;;;;;;;3.20;1.60;;;24.50;52.40;;;;;;219979;1271;24281;-54
2022/06/14 19:58:33;;;;;;;2.10;1.30;;;24.50;52.50;;;;;;219719;1273;25489;-56
2022/06/14 20:04:15;;;;;;;2.30;1.50;;;24.50;52.80;;;;;;219908;1271;24680;-55
2022/06/14 20:09:40;;;;;;;2.10;1.30;;;24.50;52.50;;;;;;220072;1269;25512;-54
2022/06/14 20:15:18;;;;;;;2.10;1.30;;;24.50;52.40;;;;;;220087;1272;22548;-53
2022/06/14 20:20:45;;;;;;;2.50;1.30;;;24.40;52.70;;;;;;220149;1273;24218;-53
2022/06/14 20:26:04;;;;;;;3.40;1.50;;;24.40;52.90;;;;;;219943;1273;25304;-54
2022/06/14 20:31:20;;;;;;;3.50;1.40;;;24.40;52.50;;;;;;220072;1270;24439;-57
2022/06/14 20:36:36;;;;;;;2.60;1.20;;;24.40;52.50;;;;;;219985;1270;25445;-55
2022/06/14 20:41:59;;;;;;;2.80;1.60;;;24.40;52.60;;;;;;220124;1273;22566;-56
2022/06/14 20:47:12;;;;;;;2.10;1.30;;;24.30;52.50;;;;;;219900;1272;24271;-49
2022/06/14 20:52:18;;;;;;;2.40;1.40;;;24.40;52.90;;;;;;220115;1270;22560;-54
2022/06/14 20:57:34;;;;;;;1.90;1.30;;;24.30;52.70;;;;;;220078;1270;24232;-58
2022/06/14 21:02:40;;;;;;;3.00;1.60;;;24.30;52.60;;;;;;220055;1270;25385;-56
2022/06/14 21:07:44;;;;;;;3.50;1.30;;;24.30;52.80;;;;;;220159;1270;22541;-58
2022/06/14 21:12:46;;;;;;;2.30;1.30;;;24.30;52.80;;;;;;220112;1270;24315;-53
2022/06/14 21:17:49;;;;;;;2.30;1.30;;;24.30;52.80;;;;;;220029;1270;22557;-55
2022/06/14 21:22:56;;;;;;;2.20;1.50;;;24.30;53.00;;;;;;220241;1271;24312;-56
2022/06/14 21:28:14;;;;;;;2.40;1.40;;;24.20;53.00;;;;;;219881;1272;25336;-55
2022/06/14 21:33:28;;;;;;;2.20;1.20;;;24.20;53.00;;;;;;219758;1271;24318;-55
2022/06/14 21:38:40;;;;;;;2.90;1.40;;;24.20;53.10;;;;;;219989;1271;22572;-53
2022/06/14 21:43:56;;;;;;;1.80;1.10;;;24.10;53.10;;;;;;219939;1271;22752;-52
2022/06/14 21:49:00;;;;;;;2.30;1.20;;;24.10;53.00;;;;;;220074;1272;22567;-54
2022/06/14 21:54:06;;;;;;;2.20;1.40;;;24.10;53.10;;;;;;219907;1273;24244;-53
2022/06/14 21:59:29;;;;;;;2.60;1.50;;;24.10;53.00;;;;;;219901;1273;25270;-54
2022/06/14 22:04:31;;;;;;;2.00;1.20;;;24.10;53.10;;;;;;219652;1272;22555;-55
2022/06/14 22:09:34;;;;;;;2.20;1.40;;;24.10;53.10;;;;;;219901;1271;23023;-56
2022/06/14 22:14:38;;;;;;;3.00;1.20;;;24.10;53.10;;;;;;219645;1273;22834;-54
2022/06/14 22:19:42;;;;;;;2.10;1.30;;;24.00;53.10;;;;;;219925;1271;22559;-54
2022/06/14 22:24:46;;;;;;;3.40;1.70;;;24.10;53.20;;;;;;220072;1271;22546;-56
2022/06/14 22:30:02;;;;;;;2.80;1.40;;;24.00;53.20;;;;;;220104;1271;24314;-55
2022/06/14 22:35:15;;;;;;;6.20;2.00;;;24.00;53.20;;;;;;220168;1270;22540;-55
2022/06/14 22:40:17;;;;;;;2.10;1.30;;;24.00;53.30;;;;;;220071;1270;22556;-57
2022/06/14 22:45:26;;;;;;;2.30;1.50;;;23.90;53.20;;;;;;220155;1270;25271;-55
2022/06/14 22:50:29;;;;;;;2.70;1.40;;;24.00;53.10;;;;;;219957;1271;22722;-54
2022/06/14 22:55:31;;;;;;;2.10;1.30;;;23.90;53.30;;;;;;220254;1270;24298;-59
2022/06/14 23:00:40;;;;;;;2.40;1.50;;;24.00;53.30;;;;;;220265;1270;24101;-54
2022/06/14 23:05:45;;;;;;;2.20;1.20;;;23.90;53.50;;;;;;219955;1271;24410;-59
2022/06/14 23:10:47;;;;;;;2.50;1.60;;;23.90;53.30;;;;;;220018;1271;22713;-54
2022/06/14 23:15:50;;;;;;;2.10;1.20;;;23.80;53.10;;;;;;219928;1271;25453;-53
2022/06/14 23:20:52;;;;;;;3.20;1.20;;;23.80;53.60;;;;;;219984;1271;23002;-56
2022/06/14 23:25:54;;;;;;;2.90;1.40;;;23.90;53.20;;;;;;219918;1271;22569;-56
2022/06/14 23:30:57;;;;;;;2.20;1.30;;;23.80;53.40;;;;;;219938;1271;22586;-56
2022/06/14 23:36:00;;;;;;;2.10;1.30;;;23.80;53.30;;;;;;220025;1272;23876;-56
2022/06/14 23:41:04;;;;;;;2.00;1.30;;;23.80;53.30;;;;;;219990;1271;24250;-57
2022/06/14 23:46:07;;;;;;;3.90;1.60;;;23.80;53.20;;;;;;219995;1271;22619;-53
2022/06/14 23:51:10;;;;;;;2.40;1.40;;;23.80;53.20;;;;;;220078;1270;24511;-54
2022/06/14 23:56:14;;;;;;;2.70;1.40;;;23.70;52.90;;;;;;220004;1271;24387;-55
